sensor_id;sensor_type;location;lat;lon;timestamp;temperature;humidity
23544;DHT22;11950;51.230;4.012;2022-09-13T00:00:56;19.50;99.90
23544;DHT22;11950;51.230;4.012;2022-09-13T00:03:23;19.30;99.90
23544;DHT22;11950;51.230;4.012;2022-09-13T00:05:49;19.30;99.90
23544;DHT22;11950;51.230;4.012;2022-09-13T00:08:16;19.50;99.90
23544;DHT22;11950;51.230;4.012;2022-09-13T00:10:43;19.10;99.90
23544;DHT22;11950;51.230;4.012;2022-09-13T00:13:11;19.30;99.90
23544;DHT22;11950;51.230;4.012;2022-09-13T00:15:45;19.40;99.90
23544;DHT22;11950;51.230;4.012;2022-09-13T00:20:39;19.30;99.90
23544;DHT22;11950;51.230;4.012;2022-09-13T00:23:06;19.40;99.90
23544;DHT22;11950;51.230;4.012;2022-09-13T00:25:32;19.60;99.90
23544;DHT22;11950;51.230;4.012;2022-09-13T00:27:58;19.50;99.90
23544;DHT22;11950;51.230;4.012;2022-09-13T00:30:25;19.40;99.90
23544;DHT22;11950;51.230;4.012;2022-09-13T00:32:51;19.30;99.90
23544;DHT22;11950;51.230;4.012;2022-09-13T00:40:11;20.20;99.90
23544;DHT22;11950;51.230;4.012;2022-09-13T00:42:37;19.50;99.90
23544;DHT22;11950;51.230;4.012;2022-09-13T00:47:52;19.40;99.90
23544;DHT22;11950;51.230;4.012;2022-09-13T00:50:36;19.40;99.90
23544;DHT22;11950;51.230;4.012;2022-09-13T00:53:04;19.40;99.90
23544;DHT22;11950;51.230;4.012;2022-09-13T00:55:43;19.40;99.90
23544;DHT22;11950;51.230;4.012;2022-09-13T00:58:21;19.30;99.90
23544;DHT22;11950;51.230;4.012;2022-09-13T01:00:49;19.30;99.90
23544;DHT22;11950;51.230;4.012;2022-09-13T01:03:16;19.40;99.90
23544;DHT22;11950;51.230;4.012;2022-09-13T01:05:47;19.30;99.90
23544;DHT22;11950;51.230;4.012;2022-09-13T01:08:14;19.30;99.90
23544;DHT22;11950;51.230;4.012;2022-09-13T01:10:50;19.40;99.90
23544;DHT22;11950;51.230;4.012;2022-09-13T01:13:19;19.40;99.90
23544;DHT22;11950;51.230;4.012;2022-09-13T01:15:46;19.40;99.90
23544;DHT22;11950;51.230;4.012;2022-09-13T01:18:13;19.30;99.90
23544;DHT22;11950;51.230;4.012;2022-09-13T01:31:48;19.30;99.90
23544;DHT22;11950;51.230;4.012;2022-09-13T01:40:08;19.30;99.90
23544;DHT22;11950;51.230;4.012;2022-09-13T01:45:34;19.20;99.90
23544;DHT22;11950;51.230;4.012;2022-09-13T01:48:35;19.30;99.90
23544;DHT22;11950;51.230;4.012;2022-09-13T01:59:09;19.30;99.90
23544;DHT22;11950;51.230;4.012;2022-09-13T02:01:41;19.10;99.90
23544;DHT22;11950;51.230;4.012;2022-09-13T02:04:19;19.10;99.90
23544;DHT22;11950;51.230;4.012;2022-09-13T02:06:53;19.10;99.90
23544;DHT22;11950;51.230;4.012;2022-09-13T02:09:26;18.80;99.90
23544;DHT22;11950;51.230;4.012;2022-09-13T02:11:59;18.90;99.90
23544;DHT22;11950;51.230;4.012;2022-09-13T02:14:31;18.90;99.90
23544;DHT22;11950;51.230;4.012;2022-09-13T02:17:17;19.00;99.90
23544;DHT22;11950;51.230;4.012;2022-09-13T02:19:56;19.10;99.90
23544;DHT22;11950;51.230;4.012;2022-09-13T02:22:28;19.10;99.90
23544;DHT22;11950;51.230;4.012;2022-09-13T02:25:04;19.00;99.90
23544;DHT22;11950;51.230;4.012;2022-09-13T02:42:48;18.90;99.90
23544;DHT22;11950;51.230;4.012;2022-09-13T02:45:15;19.10;99.90
23544;DHT22;11950;51.230;4.012;2022-09-13T02:48:16;18.90;99.90
23544;DHT22;11950;51.230;4.012;2022-09-13T02:51:12;19.00;99.90
23544;DHT22;11950;51.230;4.012;2022-09-13T02:54:41;19.10;99.90
23544;DHT22;11950;51.230;4.012;2022-09-13T02:57:14;19.00;99.90
23544;DHT22;11950;51.230;4.012;2022-09-13T02:59:45;19.00;99.90
23544;DHT22;11950;51.230;4.012;2022-09-13T03:02:15;19.10;99.90
23544;DHT22;11950;51.230;4.012;2022-09-13T03:04:43;18.90;99.90
23544;DHT22;11950;51.230;4.012;2022-09-13T03:07:11;19.10;99.90
23544;DHT22;11950;51.230;4.012;2022-09-13T03:09:44;19.00;99.90
23544;DHT22;11950;51.230;4.012;2022-09-13T03:18:10;19.10;99.90
23544;DHT22;11950;51.230;4.012;2022-09-13T03:23:10;19.20;99.90
23544;DHT22;11950;51.230;4.012;2022-09-13T03:25:56;19.10;99.90
23544;DHT22;11950;51.230;4.012;2022-09-13T03:28:58;19.10;99.90
23544;DHT22;11950;51.230;4.012;2022-09-13T03:32:40;19.00;99.90
23544;DHT22;11950;51.230;4.012;2022-09-13T03:34:58;19.00;99.90
23544;DHT22;11950;51.230;4.012;2022-09-13T03:40:06;19.10;99.90
23544;DHT22;11950;51.230;4.012;2022-09-13T03:42:49;19.00;99.90
23544;DHT22;11950;51.230;4.012;2022-09-13T03:45:21;19.10;99.90
23544;DHT22;11950;51.230;4.012;2022-09-13T03:47:49;19.10;99.90
23544;DHT22;11950;51.230;4.012;2022-09-13T03:50:20;19.00;99.90
23544;DHT22;11950;51.230;4.012;2022-09-13T03:52:51;19.00;99.90
23544;DHT22;11950;51.230;4.012;2022-09-13T03:55:20;18.70;99.90
23544;DHT22;11950;51.230;4.012;2022-09-13T03:57:46;19.10;99.90
23544;DHT22;11950;51.230;4.012;2022-09-13T04:00:13;19.00;99.90
23544;DHT22;11950;51.230;4.012;2022-09-13T04:02:40;19.00;99.90
23544;DHT22;11950;51.230;4.012;2022-09-13T04:05:06;19.00;99.90
23544;DHT22;11950;51.230;4.012;2022-09-13T04:09:59;19.20;99.90
23544;DHT22;11950;51.230;4.012;2022-09-13T04:12:26;19.10;99.90
23544;DHT22;11950;51.230;4.012;2022-09-13T04:14:56;19.00;99.90
23544;DHT22;11950;51.230;4.012;2022-09-13T04:17:22;19.00;99.90
23544;DHT22;11950;51.230;4.012;2022-09-13T04:19:49;19.80;99.90
23544;DHT22;11950;51.230;4.012;2022-09-13T04:24:41;19.10;99.90
23544;DHT22;11950;51.230;4.012;2022-09-13T04:27:09;18.50;99.90
23544;DHT22;11950;51.230;4.012;2022-09-13T04:32:01;19.00;99.90
23544;DHT22;11950;51.230;4.012;2022-09-13T04:34:28;18.90;99.90
23544;DHT22;11950;51.230;4.012;2022-09-13T04:36:54;18.70;99.90
23544;DHT22;11950;51.230;4.012;2022-09-13T04:39:21;18.80;99.90
23544;DHT22;11950;51.230;4.012;2022-09-13T04:41:49;18.90;99.90
23544;DHT22;11950;51.230;4.012;2022-09-13T04:44:17;18.80;99.90
23544;DHT22;11950;51.230;4.012;2022-09-13T04:46:46;19.80;99.90
23544;DHT22;11950;51.230;4.012;2022-09-13T04:49:16;18.90;99.90
23544;DHT22;11950;51.230;4.012;2022-09-13T04:51:43;19.00;99.90
23544;DHT22;11950;51.230;4.012;2022-09-13T04:54:10;18.80;99.90
23544;DHT22;11950;51.230;4.012;2022-09-13T04:56:36;18.90;99.90
23544;DHT22;11950;51.230;4.012;2022-09-13T04:59:02;19.30;99.90
23544;DHT22;11950;51.230;4.012;2022-09-13T05:01:29;18.90;99.90
23544;DHT22;11950;51.230;4.012;2022-09-13T05:03:55;18.80;99.90
23544;DHT22;11950;51.230;4.012;2022-09-13T05:06:22;18.80;99.90
23544;DHT22;11950;51.230;4.012;2022-09-13T05:08:53;18.80;99.90
23544;DHT22;11950;51.230;4.012;2022-09-13T05:11:21;18.90;99.90
23544;DHT22;11950;51.230;4.012;2022-09-13T05:13:49;18.80;99.90
23544;DHT22;11950;51.230;4.012;2022-09-13T05:53:18;18.90;99.90
23544;DHT22;11950;51.230;4.012;2022-09-13T05:55:44;18.80;99.90
23544;DHT22;11950;51.230;4.012;2022-09-13T06:32:23;19.10;99.90
23544;DHT22;11950;51.230;4.012;2022-09-13T06:34:49;19.00;99.90
23544;DHT22;11950;51.230;4.012;2022-09-13T06:37:15;19.10;99.90
23544;DHT22;11950;51.230;4.012;2022-09-13T06:39:41;19.00;99.90
23544;DHT22;11950;51.230;4.012;2022-09-13T06:42:08;19.10;99.90
23544;DHT22;11950;51.230;4.012;2022-09-13T06:44:39;19.00;99.90
23544;DHT22;11950;51.230;4.012;2022-09-13T06:47:05;19.10;99.90
23544;DHT22;11950;51.230;4.012;2022-09-13T06:49:31;19.00;99.90
23544;DHT22;11950;51.230;4.012;2022-09-13T06:51:57;19.00;99.90
23544;DHT22;11950;51.230;4.012;2022-09-13T07:06:39;19.30;99.90
23544;DHT22;11950;51.230;4.012;2022-09-13T07:09:08;19.30;99.90
23544;DHT22;11950;51.230;4.012;2022-09-13T07:11:37;19.30;99.90
23544;DHT22;11950;51.230;4.012;2022-09-13T07:14:05;19.40;99.90
23544;DHT22;11950;51.230;4.012;2022-09-13T07:16:33;19.90;99.90
23544;DHT22;11950;51.230;4.012;2022-09-13T07:19:03;19.40;99.90
23544;DHT22;11950;51.230;4.012;2022-09-13T07:46:10;20.80;99.90
23544;DHT22;11950;51.230;4.012;2022-09-13T08:03:25;20.60;99.90
23544;DHT22;11950;51.230;4.012;2022-09-13T08:05:52;20.40;99.90
23544;DHT22;11950;51.230;4.012;2022-09-13T08:08:18;20.40;99.90
23544;DHT22;11950;51.230;4.012;2022-09-13T08:10:45;20.90;99.90
23544;DHT22;11950;51.230;4.012;2022-09-13T08:13:11;20.70;99.90
23544;DHT22;11950;51.230;4.012;2022-09-13T08:15:37;20.70;99.90
23544;DHT22;11950;51.230;4.012;2022-09-13T08:18:04;20.80;99.90
23544;DHT22;11950;51.230;4.012;2022-09-13T08:20:35;21.10;99.90
23544;DHT22;11950;51.230;4.012;2022-09-13T08:23:02;21.10;99.90
23544;DHT22;11950;51.230;4.012;2022-09-13T08:25:30;21.30;99.90
23544;DHT22;11950;51.230;4.012;2022-09-13T08:27:57;21.40;99.90
23544;DHT22;11950;51.230;4.012;2022-09-13T08:30:23;24.40;99.90
23544;DHT22;11950;51.230;4.012;2022-09-13T08:32:49;21.40;99.90
23544;DHT22;11950;51.230;4.012;2022-09-13T08:35:16;21.70;99.90
23544;DHT22;11950;51.230;4.012;2022-09-13T08:37:42;21.60;99.90
23544;DHT22;11950;51.230;4.012;2022-09-13T08:40:09;21.70;99.90
23544;DHT22;11950;51.230;4.012;2022-09-13T08:42:53;19.90;99.90
23544;DHT22;11950;51.230;4.012;2022-09-13T08:45:21;21.80;99.90
23544;DHT22;11950;51.230;4.012;2022-09-13T08:48:38;21.90;99.90
23544;DHT22;11950;51.230;4.012;2022-09-13T08:50:43;21.90;99.90
23544;DHT22;11950;51.230;4.012;2022-09-13T08:53:24;22.00;99.90
23544;DHT22;11950;51.230;4.012;2022-09-13T08:56:01;22.10;99.90
23544;DHT22;11950;51.230;4.012;2022-09-13T09:04:38;22.40;99.90
23544;DHT22;11950;51.230;4.012;2022-09-13T09:07:18;22.20;99.90
23544;DHT22;11950;51.230;4.012;2022-09-13T09:09:54;22.40;99.90
23544;DHT22;11950;51.230;4.012;2022-09-13T09:15:08;22.50;99.90
23544;DHT22;11950;51.230;4.012;2022-09-13T09:20:40;22.60;99.90
23544;DHT22;11950;51.230;4.012;2022-09-13T09:23:16;22.70;99.90
23544;DHT22;11950;51.230;4.012;2022-09-13T09:25:43;22.80;99.90
23544;DHT22;11950;51.230;4.012;2022-09-13T09:28:15;22.80;99.90
23544;DHT22;11950;51.230;4.012;2022-09-13T09:31:02;22.90;99.90
23544;DHT22;11950;51.230;4.012;2022-09-13T09:33:33;22.90;99.90
23544;DHT22;11950;51.230;4.012;2022-09-13T09:41:02;22.90;99.90
23544;DHT22;11950;51.230;4.012;2022-09-13T09:43:41;23.00;99.90
23544;DHT22;11950;51.230;4.012;2022-09-13T09:46:10;23.10;99.90
23544;DHT22;11950;51.230;4.012;2022-09-13T09:49:02;23.20;99.90
23544;DHT22;11950;51.230;4.012;2022-09-13T09:51:30;23.30;99.90
23544;DHT22;11950;51.230;4.012;2022-09-13T09:54:02;23.30;99.90
23544;DHT22;11950;51.230;4.012;2022-09-13T09:56:32;23.30;99.90
23544;DHT22;11950;51.230;4.012;2022-09-13T09:58:59;23.40;99.90
23544;DHT22;11950;51.230;4.012;2022-09-13T10:01:28;23.50;99.90
23544;DHT22;11950;51.230;4.012;2022-09-13T10:06:40;23.70;99.90
23544;DHT22;11950;51.230;4.012;2022-09-13T10:11:49;23.70;99.90
23544;DHT22;11950;51.230;4.012;2022-09-13T10:17:19;23.80;99.90
23544;DHT22;11950;51.230;4.012;2022-09-13T10:22:38;23.90;99.90
23544;DHT22;11950;51.230;4.012;2022-09-13T10:25:17;24.00;99.90
23544;DHT22;11950;51.230;4.012;2022-09-13T10:27:52;23.60;99.90
23544;DHT22;11950;51.230;4.012;2022-09-13T10:30:34;24.10;99.90
23544;DHT22;11950;51.230;4.012;2022-09-13T10:33:02;24.00;99.90
23544;DHT22;11950;51.230;4.012;2022-09-13T10:35:29;24.10;99.90
23544;DHT22;11950;51.230;4.012;2022-09-13T10:37:55;24.10;99.90
23544;DHT22;11950;51.230;4.012;2022-09-13T10:40:31;24.00;99.90
23544;DHT22;11950;51.230;4.012;2022-09-13T10:43:11;24.10;99.90
23544;DHT22;11950;51.230;4.012;2022-09-13T10:45:40;24.10;99.90
23544;DHT22;11950;51.230;4.012;2022-09-13T10:48:15;24.20;99.90
23544;DHT22;11950;51.230;4.012;2022-09-13T10:51:11;23.90;99.90
23544;DHT22;11950;51.230;4.012;2022-09-13T10:53:41;23.90;99.90
23544;DHT22;11950;51.230;4.012;2022-09-13T10:56:25;24.00;99.90
23544;DHT22;11950;51.230;4.012;2022-09-13T11:02:24;24.10;99.90
23544;DHT22;11950;51.230;4.012;2022-09-13T11:15:41;24.10;99.90
23544;DHT22;11950;51.230;4.012;2022-09-13T11:43:14;24.80;99.90
23544;DHT22;11950;51.230;4.012;2022-09-13T11:45:57;24.60;99.90
23544;DHT22;11950;51.230;4.012;2022-09-13T11:48:52;24.80;99.90
23544;DHT22;11950;51.230;4.012;2022-09-13T11:51:38;24.60;99.90
23544;DHT22;11950;51.230;4.012;2022-09-13T11:56:59;25.00;99.90
23544;DHT22;11950;51.230;4.012;2022-09-13T12:01:57;25.00;99.90
23544;DHT22;11950;51.230;4.012;2022-09-13T12:04:26;25.10;99.90
23544;DHT22;11950;51.230;4.012;2022-09-13T12:07:00;24.90;99.90
23544;DHT22;11950;51.230;4.012;2022-09-13T12:09:51;25.10;99.90
23544;DHT22;11950;51.230;4.012;2022-09-13T12:12:18;25.50;99.90
23544;DHT22;11950;51.230;4.012;2022-09-13T12:15:02;25.10;99.90
23544;DHT22;11950;51.230;4.012;2022-09-13T12:17:41;25.10;99.90
23544;DHT22;11950;51.230;4.012;2022-09-13T12:20:19;24.60;99.90
23544;DHT22;11950;51.230;4.012;2022-09-13T12:22:49;25.10;99.90
23544;DHT22;11950;51.230;4.012;2022-09-13T12:25:23;25.10;99.90
23544;DHT22;11950;51.230;4.012;2022-09-13T12:28:03;25.40;99.90
23544;DHT22;11950;51.230;4.012;2022-09-13T12:30:41;24.90;99.90
23544;DHT22;11950;51.230;4.012;2022-09-13T12:33:14;25.00;99.90
23544;DHT22;11950;51.230;4.012;2022-09-13T12:35:50;24.30;99.90
23544;DHT22;11950;51.230;4.012;2022-09-13T12:38:33;25.00;99.90
23544;DHT22;11950;51.230;4.012;2022-09-13T12:47:01;24.90;99.90
23544;DHT22;11950;51.230;4.012;2022-09-13T12:58:55;24.80;99.90
23544;DHT22;11950;51.230;4.012;2022-09-13T13:23:37;24.20;99.90
23544;DHT22;11950;51.230;4.012;2022-09-13T13:36:29;24.30;99.90
23544;DHT22;11950;51.230;4.012;2022-09-13T13:39:00;24.00;99.90
23544;DHT22;11950;51.230;4.012;2022-09-13T13:46:30;24.30;99.90
23544;DHT22;11950;51.230;4.012;2022-09-13T13:49:51;24.00;99.90
23544;DHT22;11950;51.230;4.012;2022-09-13T14:00:14;23.90;99.90
23544;DHT22;11950;51.230;4.012;2022-09-13T14:08:31;23.70;99.90
23544;DHT22;11950;51.230;4.012;2022-09-13T14:19:46;23.70;99.90
23544;DHT22;11950;51.230;4.012;2022-09-13T14:22:23;23.60;99.90
23544;DHT22;11950;51.230;4.012;2022-09-13T14:24:52;24.10;99.90
23544;DHT22;11950;51.230;4.012;2022-09-13T14:29:54;23.40;99.90
23544;DHT22;11950;51.230;4.012;2022-09-13T14:32:24;23.50;99.90
23544;DHT22;11950;51.230;4.012;2022-09-13T14:37:19;23.30;99.90
23544;DHT22;11950;51.230;4.012;2022-09-13T14:49:54;23.30;99.90
23544;DHT22;11950;51.230;4.012;2022-09-13T14:54:57;23.40;99.90
23544;DHT22;11950;51.230;4.012;2022-09-13T14:57:33;23.40;99.90
23544;DHT22;11950;51.230;4.012;2022-09-13T15:00:21;24.10;99.90
23544;DHT22;11950;51.230;4.012;2022-09-13T15:05:18;23.30;99.90
23544;DHT22;11950;51.230;4.012;2022-09-13T15:13:08;23.40;99.90
23544;DHT22;11950;51.230;4.012;2022-09-13T15:15:42;23.40;99.90
23544;DHT22;11950;51.230;4.012;2022-09-13T15:20:53;23.10;99.90
23544;DHT22;11950;51.230;4.012;2022-09-13T15:23:25;23.10;99.90
23544;DHT22;11950;51.230;4.012;2022-09-13T15:26:12;23.20;99.90
23544;DHT22;11950;51.230;4.012;2022-09-13T15:31:23;23.20;99.90
23544;DHT22;11950;51.230;4.012;2022-09-13T15:37:00;23.10;99.90
23544;DHT22;11950;51.230;4.012;2022-09-13T15:39:26;23.10;99.90
23544;DHT22;11950;51.230;4.012;2022-09-13T15:41:57;23.00;99.90
23544;DHT22;11950;51.230;4.012;2022-09-13T15:44:26;23.00;99.90
23544;DHT22;11950;51.230;4.012;2022-09-13T15:47:01;23.00;99.90
23544;DHT22;11950;51.230;4.012;2022-09-13T15:49:31;23.10;99.90
23544;DHT22;11950;51.230;4.012;2022-09-13T16:09:20;23.00;99.90
23544;DHT22;11950;51.230;4.012;2022-09-13T16:11:48;22.70;99.90
23544;DHT22;11950;51.230;4.012;2022-09-13T16:16:42;22.70;99.90
23544;DHT22;11950;51.230;4.012;2022-09-13T16:19:15;22.40;99.90
23544;DHT22;11950;51.230;4.012;2022-09-13T16:24:09;22.90;99.90
23544;DHT22;11950;51.230;4.012;2022-09-13T16:33:56;22.00;99.90
23544;DHT22;11950;51.230;4.012;2022-09-13T16:38:49;22.30;99.90
23544;DHT22;11950;51.230;4.012;2022-09-13T16:46:09;22.30;99.90
23544;DHT22;11950;51.230;4.012;2022-09-13T16:51:05;22.10;99.90
23544;DHT22;11950;51.230;4.012;2022-09-13T16:56:13;22.10;99.90
23544;DHT22;11950;51.230;4.012;2022-09-13T16:58:40;21.90;99.90
23544;DHT22;11950;51.230;4.012;2022-09-13T17:01:09;21.70;99.90
23544;DHT22;11950;51.230;4.012;2022-09-13T17:06:05;21.90;99.90
23544;DHT22;11950;51.230;4.012;2022-09-13T17:08:33;21.80;99.90
23544;DHT22;11950;51.230;4.012;2022-09-13T17:11:03;21.70;99.90
23544;DHT22;11950;51.230;4.012;2022-09-13T17:15:56;21.50;99.90
23544;DHT22;11950;51.230;4.012;2022-09-13T17:18:22;21.40;99.90
23544;DHT22;11950;51.230;4.012;2022-09-13T17:20:49;21.50;99.90
23544;DHT22;11950;51.230;4.012;2022-09-13T17:23:16;21.50;99.90
23544;DHT22;11950;51.230;4.012;2022-09-13T17:25:46;21.40;99.90
23544;DHT22;11950;51.230;4.012;2022-09-13T17:28:13;21.60;99.90
23544;DHT22;11950;51.230;4.012;2022-09-13T17:30:40;21.30;99.90
23544;DHT22;11950;51.230;4.012;2022-09-13T17:33:07;21.50;99.90
23544;DHT22;11950;51.230;4.012;2022-09-13T17:35:34;21.40;99.90
23544;DHT22;11950;51.230;4.012;2022-09-13T17:38:01;21.40;99.90
23544;DHT22;11950;51.230;4.012;2022-09-13T17:40:28;21.40;99.90
23544;DHT22;11950;51.230;4.012;2022-09-13T17:42:55;21.40;99.90
23544;DHT22;11950;51.230;4.012;2022-09-13T17:45:23;21.30;99.90
23544;DHT22;11950;51.230;4.012;2022-09-13T17:47:53;21.20;99.90
23544;DHT22;11950;51.230;4.012;2022-09-13T17:50:20;21.20;99.90
23544;DHT22;11950;51.230;4.012;2022-09-13T17:52:46;21.20;99.90
23544;DHT22;11950;51.230;4.012;2022-09-13T17:55:12;21.10;99.90
23544;DHT22;11950;51.230;4.012;2022-09-13T17:57:38;21.10;99.90
23544;DHT22;11950;51.230;4.012;2022-09-13T18:00:06;21.10;99.90
23544;DHT22;11950;51.230;4.012;2022-09-13T18:02:38;21.00;99.90
23544;DHT22;11950;51.230;4.012;2022-09-13T18:05:04;20.40;99.90
23544;DHT22;11950;51.230;4.012;2022-09-13T18:07:30;20.90;99.90
23544;DHT22;11950;51.230;4.012;2022-09-13T18:09:56;21.00;99.90
23544;DHT22;11950;51.230;4.012;2022-09-13T18:12:23;20.90;99.90
23544;DHT22;11950;51.230;4.012;2022-09-13T18:14:49;20.80;99.90
23544;DHT22;11950;51.230;4.012;2022-09-13T18:17:15;20.90;99.90
23544;DHT22;11950;51.230;4.012;2022-09-13T18:19:41;20.90;99.90
23544;DHT22;11950;51.230;4.012;2022-09-13T18:22:08;20.80;99.90
23544;DHT22;11950;51.230;4.012;2022-09-13T18:24:34;20.80;99.90
23544;DHT22;11950;51.230;4.012;2022-09-13T18:27:02;20.80;99.90
23544;DHT22;11950;51.230;4.012;2022-09-13T18:29:28;20.80;99.90
23544;DHT22;11950;51.230;4.012;2022-09-13T18:31:56;20.70;99.90
23544;DHT22;11950;51.230;4.012;2022-09-13T18:34:23;20.70;99.90
23544;DHT22;11950;51.230;4.012;2022-09-13T18:36:49;20.70;99.90
23544;DHT22;11950;51.230;4.012;2022-09-13T18:39:19;20.70;99.90
23544;DHT22;11950;51.230;4.012;2022-09-13T18:41:47;20.50;99.90
23544;DHT22;11950;51.230;4.012;2022-09-13T18:44:16;20.70;99.90
23544;DHT22;11950;51.230;4.012;2022-09-13T18:51:38;20.40;99.90
23544;DHT22;11950;51.230;4.012;2022-09-13T18:54:06;20.70;99.90
23544;DHT22;11950;51.230;4.012;2022-09-13T18:56:33;20.60;99.90
23544;DHT22;11950;51.230;4.012;2022-09-13T18:59:01;20.40;99.90
23544;DHT22;11950;51.230;4.012;2022-09-13T19:01:33;20.40;99.90
23544;DHT22;11950;51.230;4.012;2022-09-13T19:04:01;20.40;99.90
23544;DHT22;11950;51.230;4.012;2022-09-13T19:06:54;20.40;99.90
23544;DHT22;11950;51.230;4.012;2022-09-13T19:09:23;20.40;99.90
23544;DHT22;11950;51.230;4.012;2022-09-13T19:11:52;20.40;99.90
23544;DHT22;11950;51.230;4.012;2022-09-13T19:14:20;20.40;99.90
23544;DHT22;11950;51.230;4.012;2022-09-13T19:16:49;20.40;99.90
23544;DHT22;11950;51.230;4.012;2022-09-13T19:19:15;20.40;99.90
23544;DHT22;11950;51.230;4.012;2022-09-13T19:21:42;20.40;99.90
23544;DHT22;11950;51.230;4.012;2022-09-13T19:24:09;20.40;99.90
23544;DHT22;11950;51.230;4.012;2022-09-13T19:26:41;20.30;99.90
23544;DHT22;11950;51.230;4.012;2022-09-13T19:29:13;20.30;99.90
23544;DHT22;11950;51.230;4.012;2022-09-13T19:31:42;20.30;99.90
23544;DHT22;11950;51.230;4.012;2022-09-13T19:34:09;20.30;99.90
23544;DHT22;11950;51.230;4.012;2022-09-13T19:36:38;20.20;99.90
23544;DHT22;11950;51.230;4.012;2022-09-13T19:39:05;20.20;99.90
23544;DHT22;11950;51.230;4.012;2022-09-13T19:41:32;20.20;99.90
23544;DHT22;11950;51.230;4.012;2022-09-13T19:44:00;20.10;99.90
23544;DHT22;11950;51.230;4.012;2022-09-13T19:46:28;20.20;99.90
23544;DHT22;11950;51.230;4.012;2022-09-13T19:48:56;20.10;99.90
23544;DHT22;11950;51.230;4.012;2022-09-13T19:51:32;20.10;99.90
23544;DHT22;11950;51.230;4.012;2022-09-13T19:53:59;20.10;99.90
23544;DHT22;11950;51.230;4.012;2022-09-13T19:56:31;20.10;99.90
23544;DHT22;11950;51.230;4.012;2022-09-13T19:58:58;20.10;99.90
23544;DHT22;11950;51.230;4.012;2022-09-13T20:01:27;20.00;99.90
23544;DHT22;11950;51.230;4.012;2022-09-13T20:04:05;20.00;99.90
23544;DHT22;11950;51.230;4.012;2022-09-13T20:06:37;20.00;99.90
23544;DHT22;11950;51.230;4.012;2022-09-13T20:09:05;20.00;99.90
23544;DHT22;11950;51.230;4.012;2022-09-13T20:11:32;19.90;99.90
23544;DHT22;11950;51.230;4.012;2022-09-13T20:13:59;19.90;99.90
23544;DHT22;11950;51.230;4.012;2022-09-13T20:16:31;19.90;99.90
23544;DHT22;11950;51.230;4.012;2022-09-13T20:18:59;19.90;99.90
23544;DHT22;11950;51.230;4.012;2022-09-13T20:21:26;19.80;99.90
23544;DHT22;11950;51.230;4.012;2022-09-13T20:23:55;19.90;99.90
23544;DHT22;11950;51.230;4.012;2022-09-13T20:26:24;19.90;99.90
23544;DHT22;11950;51.230;4.012;2022-09-13T20:28:57;19.80;99.90
23544;DHT22;11950;51.230;4.012;2022-09-13T20:31:26;19.90;99.90
23544;DHT22;11950;51.230;4.012;2022-09-13T20:33:54;19.80;99.90
23544;DHT22;11950;51.230;4.012;2022-09-13T20:36:21;19.90;99.90
23544;DHT22;11950;51.230;4.012;2022-09-13T20:38:48;19.80;99.90
23544;DHT22;11950;51.230;4.012;2022-09-13T20:41:15;19.90;99.90
23544;DHT22;11950;51.230;4.012;2022-09-13T20:43:42;19.90;99.90
23544;DHT22;11950;51.230;4.012;2022-09-13T20:46:10;19.80;99.90
23544;DHT22;11950;51.230;4.012;2022-09-13T20:48:37;19.70;99.90
23544;DHT22;11950;51.230;4.012;2022-09-13T20:51:07;19.60;99.90
23544;DHT22;11950;51.230;4.012;2022-09-13T20:53:36;19.70;99.90
23544;DHT22;11950;51.230;4.012;2022-09-13T20:56:07;19.70;99.90
23544;DHT22;11950;51.230;4.012;2022-09-13T20:58:35;19.90;99.90
23544;DHT22;11950;51.230;4.012;2022-09-13T21:01:05;19.70;99.90
23544;DHT22;11950;51.230;4.012;2022-09-13T21:03:37;19.70;99.90
23544;DHT22;11950;51.230;4.012;2022-09-13T21:06:05;19.80;99.90
23544;DHT22;11950;51.230;4.012;2022-09-13T21:08:31;19.60;99.90
23544;DHT22;11950;51.230;4.012;2022-09-13T21:11:28;19.60;99.90
23544;DHT22;11950;51.230;4.012;2022-09-13T21:13:57;19.60;99.90
23544;DHT22;11950;51.230;4.012;2022-09-13T21:16:30;19.60;99.90
23544;DHT22;11950;51.230;4.012;2022-09-13T21:18:58;19.60;99.90
23544;DHT22;11950;51.230;4.012;2022-09-13T21:21:28;19.60;99.90
23544;DHT22;11950;51.230;4.012;2022-09-13T21:23:55;19.30;99.90
23544;DHT22;11950;51.230;4.012;2022-09-13T21:26:23;19.60;99.90
23544;DHT22;11950;51.230;4.012;2022-09-13T21:28:51;19.60;99.90
23544;DHT22;11950;51.230;4.012;2022-09-13T21:31:21;19.60;99.90
23544;DHT22;11950;51.230;4.012;2022-09-13T21:33:53;19.60;99.90
23544;DHT22;11950;51.230;4.012;2022-09-13T21:36:20;19.60;99.90
23544;DHT22;11950;51.230;4.012;2022-09-13T21:38:46;19.50;99.90
23544;DHT22;11950;51.230;4.012;2022-09-13T21:41:14;19.50;99.90
23544;DHT22;11950;51.230;4.012;2022-09-13T21:43:41;19.50;99.90
23544;DHT22;11950;51.230;4.012;2022-09-13T21:46:11;19.20;99.90
23544;DHT22;11950;51.230;4.012;2022-09-13T21:48:43;19.60;99.90
23544;DHT22;11950;51.230;4.012;2022-09-13T21:51:19;19.40;99.90
23544;DHT22;11950;51.230;4.012;2022-09-13T21:53:47;19.40;99.90
23544;DHT22;11950;51.230;4.012;2022-09-13T21:56:16;19.40;99.90
23544;DHT22;11950;51.230;4.012;2022-09-13T21:58:52;19.40;99.90
23544;DHT22;11950;51.230;4.012;2022-09-13T22:01:20;19.50;99.90
23544;DHT22;11950;51.230;4.012;2022-09-13T22:03:49;19.50;99.90
23544;DHT22;11950;51.230;4.012;2022-09-13T22:06:15;19.60;99.90
23544;DHT22;11950;51.230;4.012;2022-09-13T22:08:43;19.20;99.90
23544;DHT22;11950;51.230;4.012;2022-09-13T22:11:16;19.30;99.90
23544;DHT22;11950;51.230;4.012;2022-09-13T22:13:43;19.30;99.90
23544;DHT22;11950;51.230;4.012;2022-09-13T22:16:18;19.40;99.90
23544;DHT22;11950;51.230;4.012;2022-09-13T22:18:52;19.40;99.90
23544;DHT22;11950;51.230;4.012;2022-09-13T22:21:21;19.30;99.90
23544;DHT22;11950;51.230;4.012;2022-09-13T22:23:48;19.30;99.90
23544;DHT22;11950;51.230;4.012;2022-09-13T22:26:23;19.40;99.90
23544;DHT22;11950;51.230;4.012;2022-09-13T22:28:50;19.30;99.90
23544;DHT22;11950;51.230;4.012;2022-09-13T22:31:23;19.30;99.90
23544;DHT22;11950;51.230;4.012;2022-09-13T22:33:50;19.30;99.90
23544;DHT22;11950;51.230;4.012;2022-09-13T22:36:17;19.30;99.90
23544;DHT22;11950;51.230;4.012;2022-09-13T22:38:45;19.20;99.90
23544;DHT22;11950;51.230;4.012;2022-09-13T22:41:14;19.20;99.90
23544;DHT22;11950;51.230;4.012;2022-09-13T22:43:41;19.20;99.90
23544;DHT22;11950;51.230;4.012;2022-09-13T22:46:21;19.20;99.90
23544;DHT22;11950;51.230;4.012;2022-09-13T22:48:48;19.30;99.90
23544;DHT22;11950;51.230;4.012;2022-09-13T22:51:16;19.20;99.90
23544;DHT22;11950;51.230;4.012;2022-09-13T22:53:44;19.20;99.90
23544;DHT22;11950;51.230;4.012;2022-09-13T22:58:47;19.10;99.90
23544;DHT22;11950;51.230;4.012;2022-09-13T23:01:15;19.10;99.90
23544;DHT22;11950;51.230;4.012;2022-09-13T23:03:43;19.10;99.90